Time;durP1;ratioP1;P1;durP2;ratioP2;P2;SDS_P1;SDS_P2;PMS_P1;PMS_P2;Temp;Humidity;BMP_temperature;BMP_pressure;BME280_temperature;BME280_humidity;BME280_pressure;Samples;Min_cycle;Max_cycle;Signal;HPM_P1;HPM_P2
2023/12/06 00:01:40;;;;;;;35.95;19.40;;;0.40;99.90;;;;;;4968238;28;20398;-71
2023/12/06 00:04:06;;;;;;;31.20;16.05;;;0.50;99.90;;;;;;4968779;28;20818;-71
2023/12/06 00:06:31;;;;;;;32.25;16.67;;;0.50;99.90;;;;;;4951823;28;20085;-71
2023/12/06 00:08:58;;;;;;;35.85;19.30;;;0.50;99.90;;;;;;4968940;28;20054;-71
2023/12/06 00:11:23;;;;;;;32.78;17.90;;;0.50;99.90;;;;;;4967772;28;20049;-71
2023/12/06 00:13:49;;;;;;;35.78;18.60;;;0.50;99.90;;;;;;4998676;28;20058;-71
2023/12/06 00:16:15;;;;;;;36.22;18.42;;;0.50;99.90;;;;;;4951247;28;20046;-71
2023/12/06 00:18:43;;;;;;;31.92;17.48;;;0.50;99.90;;;;;;4952486;28;20076;-71
2023/12/06 00:21:09;;;;;;;37.40;19.08;;;0.50;99.90;;;;;;4939761;28;20135;-71
2023/12/06 00:23:35;;;;;;;33.90;17.10;;;0.50;99.90;;;;;;4984279;28;20133;-71
2023/12/06 00:26:01;;;;;;;33.80;16.58;;;0.50;99.90;;;;;;4951924;28;20050;-71
2023/12/06 00:28:26;;;;;;;31.80;17.73;;;0.50;99.90;;;;;;4967895;28;20409;-71
2023/12/06 00:30:52;;;;;;;33.72;18.15;;;0.50;99.90;;;;;;4952470;28;20053;-71
2023/12/06 00:33:18;;;;;;;33.42;18.00;;;0.50;99.90;;;;;;4950833;28;20043;-71
2023/12/06 00:35:44;;;;;;;35.85;17.85;;;0.50;99.90;;;;;;4950513;28;20100;-71
2023/12/06 00:38:10;;;;;;;31.88;16.15;;;0.60;99.90;;;;;;4951994;28;20124;-71
2023/12/06 00:40:35;;;;;;;34.15;18.20;;;0.50;99.90;;;;;;4952391;28;20125;-71
2023/12/06 00:43:03;;;;;;;34.22;17.70;;;0.60;99.90;;;;;;5000545;28;20090;-71
2023/12/06 00:45:31;;;;;;;33.95;17.10;;;0.50;99.90;;;;;;4967296;28;20524;-71
2023/12/06 00:47:57;;;;;;;35.88;17.55;;;0.50;99.90;;;;;;4952222;28;20073;-71
2023/12/06 00:50:23;;;;;;;34.90;17.88;;;0.60;99.90;;;;;;4966783;28;20753;-71
2023/12/06 00:52:48;;;;;;;30.65;18.05;;;0.50;99.90;;;;;;4920792;28;20035;-71
2023/12/06 00:55:14;;;;;;;27.65;15.68;;;0.50;99.90;;;;;;4950256;28;20049;-71
2023/12/06 00:57:40;;;;;;;33.35;17.33;;;0.60;99.90;;;;;;4952146;28;20054;-71
2023/12/06 01:00:07;;;;;;;28.65;16.58;;;0.60;99.90;;;;;;4968110;28;20058;-71
2023/12/06 01:02:33;;;;;;;38.38;17.77;;;0.60;99.90;;;;;;4975204;28;20048;-71
2023/12/06 01:04:58;;;;;;;32.53;17.40;;;0.60;99.90;;;;;;4951566;28;20038;-71
2023/12/06 01:07:24;;;;;;;36.95;18.83;;;0.70;99.90;;;;;;4984414;28;20189;-71
2023/12/06 01:09:50;;;;;;;30.92;17.20;;;0.70;99.90;;;;;;4968216;28;20138;-71
2023/12/06 01:12:15;;;;;;;33.63;18.60;;;0.60;99.90;;;;;;4966651;28;20046;-71
2023/12/06 01:14:41;;;;;;;38.10;19.48;;;0.60;99.90;;;;;;4951541;28;20101;-71
2023/12/06 01:17:07;;;;;;;30.02;17.05;;;0.70;99.90;;;;;;4966519;28;20046;-71
2023/12/06 01:19:33;;;;;;;31.80;18.42;;;0.60;99.90;;;;;;4965712;28;20128;-71
2023/12/06 01:21:59;;;;;;;30.65;17.63;;;0.70;99.90;;;;;;4967207;28;20077;-71
2023/12/06 01:24:25;;;;;;;31.15;17.65;;;0.70;99.90;;;;;;4957203;28;20057;-71
2023/12/06 01:26:50;;;;;;;26.95;16.15;;;0.70;99.90;;;;;;4944272;28;20124;-71
2023/12/06 01:29:16;;;;;;;33.00;16.85;;;0.70;99.90;;;;;;4951182;28;20046;-71
2023/12/06 01:31:42;;;;;;;29.15;16.00;;;0.70;99.90;;;;;;4945967;28;20432;-71
2023/12/06 01:34:07;;;;;;;29.23;16.75;;;0.70;99.90;;;;;;4965156;28;20054;-71
2023/12/06 01:36:34;;;;;;;33.83;17.73;;;0.70;99.90;;;;;;4955466;28;20043;-71
2023/12/06 01:39:01;;;;;;;31.23;16.75;;;0.70;99.90;;;;;;4952861;28;20181;-71
2023/12/06 01:41:27;;;;;;;31.00;17.65;;;0.70;99.90;;;;;;4939763;28;20072;-71
2023/12/06 01:43:53;;;;;;;28.52;14.73;;;0.80;99.90;;;;;;4969626;28;20046;-71
2023/12/06 01:46:19;;;;;;;32.17;16.70;;;0.70;99.90;;;;;;4956705;28;20038;-71
2023/12/06 01:48:47;;;;;;;33.97;17.23;;;0.70;99.90;;;;;;4968912;28;20512;-71
2023/12/06 01:51:14;;;;;;;27.67;15.02;;;0.80;99.90;;;;;;4952402;28;20049;-71
2023/12/06 01:53:40;;;;;;;36.00;16.67;;;0.70;99.90;;;;;;4948093;28;20043;-71
2023/12/06 01:56:07;;;;;;;31.60;18.08;;;0.70;99.90;;;;;;4936353;28;20047;-71
2023/12/06 01:58:35;;;;;;;36.05;17.67;;;0.80;99.90;;;;;;4937391;28;20046;-71
2023/12/06 02:01:02;;;;;;;31.10;15.57;;;0.80;99.90;;;;;;4942339;28;20108;-71
2023/12/06 02:03:28;;;;;;;30.67;17.40;;;0.80;99.90;;;;;;4936909;28;20045;-71
2023/12/06 02:05:54;;;;;;;28.25;16.48;;;0.70;99.90;;;;;;4947972;28;20050;-71
2023/12/06 02:08:20;;;;;;;28.45;15.80;;;0.80;99.90;;;;;;4951118;28;20119;-71
2023/12/06 02:10:46;;;;;;;28.48;15.38;;;0.80;99.90;;;;;;4954849;28;20054;-71
2023/12/06 02:13:11;;;;;;;31.63;16.45;;;0.80;99.90;;;;;;4915185;28;20046;-71
2023/12/06 02:15:37;;;;;;;30.45;16.63;;;0.90;99.90;;;;;;4948509;28;20054;-71
2023/12/06 02:18:04;;;;;;;30.85;15.88;;;0.90;99.90;;;;;;4919963;28;20880;-71
2023/12/06 02:20:30;;;;;;;30.15;15.88;;;0.90;99.90;;;;;;4935426;28;20275;-71
2023/12/06 02:22:57;;;;;;;27.55;15.00;;;0.90;99.90;;;;;;4944318;28;20046;-71
2023/12/06 02:25:23;;;;;;;23.63;13.70;;;0.90;99.90;;;;;;4946096;28;20604;-71
2023/12/06 02:27:49;;;;;;;30.73;15.23;;;0.90;99.90;;;;;;4948437;28;20130;-70
2023/12/06 02:30:15;;;;;;;35.97;14.98;;;1.00;99.90;;;;;;4964426;28;20888;-71
2023/12/06 02:32:40;;;;;;;26.38;14.98;;;0.90;99.90;;;;;;4964567;28;20082;-71
2023/12/06 02:35:16;;;;;;;29.52;15.10;;;1.00;99.90;;;;;;4964551;28;20054;-71
2023/12/06 02:37:44;;;;;;;28.75;14.48;;;1.00;99.90;;;;;;4948801;28;20473;-70
2023/12/06 02:40:12;;;;;;;31.38;15.07;;;1.00;99.90;;;;;;4963635;28;20133;-70
2023/12/06 02:42:37;;;;;;;28.52;14.20;;;1.10;99.90;;;;;;4962805;28;20042;-70
2023/12/06 02:45:04;;;;;;;26.13;14.70;;;1.00;99.90;;;;;;4948317;28;20122;-71
2023/12/06 02:47:29;;;;;;;24.88;13.70;;;1.10;99.90;;;;;;4964850;28;20050;-71
2023/12/06 02:49:55;;;;;;;24.85;13.68;;;1.20;99.90;;;;;;4964890;28;20661;-70
2023/12/06 02:52:21;;;;;;;28.23;13.00;;;1.10;99.90;;;;;;4964493;28;20047;-70
2023/12/06 02:54:46;;;;;;;25.15;14.52;;;1.10;99.90;;;;;;4948633;28;20058;-70
2023/12/06 02:57:12;;;;;;;26.25;14.68;;;1.30;99.90;;;;;;4980232;28;20417;-70
2023/12/06 02:59:38;;;;;;;26.88;12.65;;;1.20;99.90;;;;;;4964957;28;20137;-70
2023/12/06 03:02:04;;;;;;;17.58;11.45;;;1.30;99.90;;;;;;4964221;28;20065;-70
2023/12/06 03:04:30;;;;;;;16.30;9.40;;;1.30;99.90;;;;;;4948358;28;20452;-71
2023/12/06 03:06:56;;;;;;;20.92;12.00;;;1.30;99.90;;;;;;4964598;28;20117;-70
2023/12/06 03:09:22;;;;;;;18.42;10.13;;;1.40;99.90;;;;;;4963818;28;20042;-70
2023/12/06 03:11:47;;;;;;;17.00;9.13;;;1.30;99.90;;;;;;4933107;28;20042;-70
2023/12/06 03:14:16;;;;;;;15.05;8.77;;;1.30;99.90;;;;;;4981576;28;20504;-70
2023/12/06 03:16:42;;;;;;;18.55;9.20;;;1.30;99.90;;;;;;4964073;28;20119;-70
2023/12/06 03:19:09;;;;;;;13.80;9.20;;;1.30;99.90;;;;;;4918809;28;20259;-70
2023/12/06 03:21:34;;;;;;;18.50;9.05;;;1.40;99.90;;;;;;4967793;28;20061;-70
2023/12/06 03:24:00;;;;;;;14.60;9.23;;;1.30;99.90;;;;;;4951007;28;20054;-70
2023/12/06 03:26:26;;;;;;;10.45;6.72;;;1.30;99.90;;;;;;4951501;28;20117;-71
2023/12/06 03:28:52;;;;;;;13.57;8.88;;;1.40;99.90;;;;;;4933597;28;20438;-70
2023/12/06 03:31:18;;;;;;;12.57;6.80;;;1.30;99.90;;;;;;4945786;28;20556;-71
2023/12/06 03:33:44;;;;;;;15.45;8.27;;;1.30;99.90;;;;;;4951437;28;20054;-71
2023/12/06 03:36:10;;;;;;;12.40;7.00;;;1.30;99.90;;;;;;4950255;28;20047;-70
2023/12/06 03:38:36;;;;;;;16.42;8.88;;;1.20;99.90;;;;;;4949543;28;20504;-70
2023/12/06 03:41:02;;;;;;;12.20;8.02;;;1.30;99.90;;;;;;4933121;28;20051;-70
2023/12/06 03:43:27;;;;;;;13.90;8.80;;;1.30;99.90;;;;;;4950703;28;20078;-70
2023/12/06 03:45:53;;;;;;;14.23;8.30;;;1.30;99.90;;;;;;4955121;28;20062;-70
2023/12/06 03:48:19;;;;;;;13.23;6.43;;;1.30;99.90;;;;;;4947305;28;20464;-70
2023/12/06 03:50:45;;;;;;;13.35;7.22;;;1.20;99.90;;;;;;4951619;28;20053;-70
2023/12/06 03:53:10;;;;;;;11.30;6.65;;;1.40;99.90;;;;;;4954903;28;20042;-70
2023/12/06 03:55:36;;;;;;;15.63;8.48;;;1.30;99.90;;;;;;4954022;28;20479;-70
2023/12/06 03:58:04;;;;;;;15.90;8.63;;;1.30;99.90;;;;;;4948709;28;20096;-71
2023/12/06 04:00:30;;;;;;;21.05;8.15;;;1.20;99.90;;;;;;4948743;28;20572;-71
2023/12/06 04:02:57;;;;;;;13.38;7.95;;;1.30;99.90;;;;;;4948687;28;20074;-71
2023/12/06 04:05:23;;;;;;;12.98;8.25;;;1.30;99.90;;;;;;4951475;28;20039;-70
2023/12/06 04:07:49;;;;;;;13.55;8.13;;;1.20;99.90;;;;;;4966858;28;20034;-70
2023/12/06 04:10:15;;;;;;;11.60;7.32;;;1.30;99.90;;;;;;4952588;28;20121;-71
2023/12/06 04:12:40;;;;;;;14.57;8.07;;;1.30;99.90;;;;;;4931997;28;20067;-71
2023/12/06 04:15:07;;;;;;;14.90;8.65;;;1.30;99.90;;;;;;4964880;28;20421;-70
2023/12/06 04:17:33;;;;;;;12.10;7.20;;;1.30;99.90;;;;;;4948680;28;20397;-70
2023/12/06 04:19:58;;;;;;;14.05;6.97;;;1.30;99.90;;;;;;4950032;28;20039;-71
2023/12/06 04:22:24;;;;;;;10.52;6.63;;;1.30;99.90;;;;;;4933228;28;20042;-70
2023/12/06 04:24:50;;;;;;;13.38;7.32;;;1.20;99.90;;;;;;4972610;28;20540;-70
2023/12/06 04:27:15;;;;;;;13.77;8.48;;;1.30;99.90;;;;;;4966295;28;20054;-70
2023/12/06 04:29:41;;;;;;;11.80;7.00;;;1.40;99.90;;;;;;4966624;28;21440;-70
2023/12/06 04:32:07;;;;;;;12.07;6.47;;;1.30;99.90;;;;;;4966915;28;20053;-70
2023/12/06 04:34:35;;;;;;;9.18;6.18;;;1.30;99.90;;;;;;4967080;28;20053;-71
2023/12/06 04:37:01;;;;;;;11.02;6.57;;;1.30;99.90;;;;;;4950619;28;20054;-71
2023/12/06 04:39:27;;;;;;;17.42;6.80;;;1.30;99.90;;;;;;4966492;28;20329;-71
2023/12/06 04:41:52;;;;;;;10.32;5.95;;;1.30;99.90;;;;;;4966442;28;20050;-70
2023/12/06 04:44:18;;;;;;;11.73;6.28;;;1.30;99.90;;;;;;4966490;28;20121;-70
2023/12/06 04:46:44;;;;;;;14.45;7.18;;;1.30;99.90;;;;;;4949623;28;20042;-70
2023/12/06 04:49:09;;;;;;;9.90;6.60;;;1.30;99.90;;;;;;4950955;28;20064;-70
2023/12/06 04:51:35;;;;;;;11.02;6.57;;;1.30;99.90;;;;;;4949425;28;20038;-70
2023/12/06 04:54:01;;;;;;;9.55;5.07;;;1.40;99.90;;;;;;4967591;28;20048;-70
2023/12/06 04:56:26;;;;;;;8.20;5.88;;;1.40;99.90;;;;;;4950440;28;20049;-71
2023/12/06 04:58:52;;;;;;;10.10;6.25;;;1.30;99.90;;;;;;4983070;28;20449;-71
2023/12/06 05:01:18;;;;;;;9.80;6.43;;;1.30;99.90;;;;;;4966009;28;20169;-71
2023/12/06 05:03:44;;;;;;;12.00;6.68;;;1.40;99.90;;;;;;4950513;28;20035;-71
2023/12/06 05:06:10;;;;;;;10.95;6.90;;;1.40;99.90;;;;;;4966339;28;20102;-71
2023/12/06 05:08:35;;;;;;;11.52;6.72;;;1.40;99.90;;;;;;4979595;28;20404;-71
2023/12/06 05:11:01;;;;;;;11.30;6.65;;;1.50;99.90;;;;;;4966730;28;20038;-71
2023/12/06 05:13:27;;;;;;;12.65;6.80;;;1.40;99.90;;;;;;4970524;28;20405;-70
2023/12/06 05:15:53;;;;;;;9.05;5.75;;;1.50;99.90;;;;;;4966352;28;20058;-71
2023/12/06 05:18:18;;;;;;;12.40;7.13;;;1.50;99.90;;;;;;4949728;28;20125;-70
2023/12/06 05:20:44;;;;;;;14.23;6.68;;;1.40;99.90;;;;;;4966633;28;20129;-70
2023/12/06 05:23:10;;;;;;;14.90;7.38;;;1.40;99.90;;;;;;4965090;28;20491;-71
2023/12/06 05:25:35;;;;;;;10.45;6.28;;;1.50;99.90;;;;;;4930688;28;20062;-70
2023/12/06 05:28:01;;;;;;;12.70;6.95;;;1.50;99.90;;;;;;4929756;28;20046;-70
2023/12/06 05:30:27;;;;;;;13.90;7.97;;;1.60;99.90;;;;;;4930795;28;20133;-69
2023/12/06 05:32:54;;;;;;;9.60;6.43;;;1.50;99.90;;;;;;4914778;28;20764;-70
2023/12/06 05:35:20;;;;;;;11.25;6.22;;;1.50;99.90;;;;;;4977951;28;20401;-70
2023/12/06 05:37:46;;;;;;;15.98;8.40;;;1.50;99.90;;;;;;4930490;28;20642;-70
2023/12/06 05:40:12;;;;;;;15.20;7.28;;;1.50;99.90;;;;;;4943116;28;20050;-70
2023/12/06 05:42:38;;;;;;;10.52;7.65;;;1.60;99.90;;;;;;4930076;28;20426;-69
2023/12/06 05:45:06;;;;;;;10.23;6.35;;;1.60;99.90;;;;;;4961139;28;20043;-70
2023/12/06 05:47:32;;;;;;;12.88;7.25;;;1.50;99.90;;;;;;4973675;28;20109;-70
2023/12/06 05:49:57;;;;;;;11.48;7.60;;;1.50;99.90;;;;;;4930486;28;20046;-69
2023/12/06 05:52:23;;;;;;;12.75;7.25;;;1.70;99.90;;;;;;4945736;28;20050;-70
2023/12/06 05:54:49;;;;;;;12.40;7.25;;;1.60;99.90;;;;;;4929855;28;20506;-70
2023/12/06 05:57:14;;;;;;;9.80;6.80;;;1.60;99.90;;;;;;4963701;28;20050;-69
2023/12/06 05:59:40;;;;;;;13.05;6.60;;;1.60;99.90;;;;;;4929986;28;20047;-70
2023/12/06 06:02:06;;;;;;;15.90;8.00;;;1.60;99.90;;;;;;4946258;28;20102;-70
2023/12/06 06:04:31;;;;;;;12.02;7.22;;;1.70;99.90;;;;;;4962618;28;20058;-70
2023/12/06 06:06:57;;;;;;;17.38;8.10;;;1.60;99.90;;;;;;4946119;28;20125;-70
2023/12/06 06:09:23;;;;;;;12.10;7.50;;;1.70;99.90;;;;;;4929958;28;20045;-70
2023/12/06 06:11:49;;;;;;;10.23;6.72;;;1.70;99.90;;;;;;4946131;28;20043;-70
2023/12/06 06:14:16;;;;;;;14.73;7.53;;;1.70;99.90;;;;;;4945791;28;20474;-70
2023/12/06 06:16:42;;;;;;;12.70;6.05;;;1.70;99.90;;;;;;4945378;28;20378;-70
2023/12/06 06:19:07;;;;;;;12.65;7.13;;;1.60;99.90;;;;;;4945198;28;20054;-70
2023/12/06 06:21:33;;;;;;;14.52;7.15;;;1.60;99.90;;;;;;4944436;28;20054;-70
2023/12/06 06:23:59;;;;;;;9.88;6.68;;;1.70;99.90;;;;;;4950214;28;20552;-70
2023/12/06 06:26:25;;;;;;;6.72;4.72;;;1.70;99.90;;;;;;4965427;28;20062;-70
2023/12/06 06:28:51;;;;;;;13.55;8.05;;;1.70;99.90;;;;;;4948750;28;20062;-70
2023/12/06 06:31:16;;;;;;;12.95;6.80;;;1.70;99.90;;;;;;4948761;28;20045;-70
2023/12/06 06:33:42;;;;;;;11.85;6.15;;;1.70;99.90;;;;;;4964330;28;20050;-70
2023/12/06 06:36:08;;;;;;;12.05;7.07;;;1.70;99.90;;;;;;4946691;28;20046;-70
2023/12/06 06:38:35;;;;;;;13.38;6.68;;;1.70;99.90;;;;;;4947568;28;20054;-70
2023/12/06 06:41:01;;;;;;;10.77;6.32;;;1.60;99.90;;;;;;4965052;28;20072;-70
2023/12/06 06:43:27;;;;;;;10.00;6.78;;;1.70;99.90;;;;;;4948838;28;20369;-70
2023/12/06 06:45:53;;;;;;;10.25;6.40;;;1.70;99.90;;;;;;4949119;28;20054;-70
2023/12/06 06:48:19;;;;;;;13.80;6.47;;;1.60;99.90;;;;;;4963530;28;20054;-70
2023/12/06 06:50:45;;;;;;;12.57;6.85;;;1.70;99.90;;;;;;4964455;28;20053;-70
2023/12/06 06:53:11;;;;;;;8.32;5.72;;;1.80;99.90;;;;;;4959360;28;20084;-70
2023/12/06 06:55:37;;;;;;;11.40;6.40;;;1.70;99.90;;;;;;4944153;28;20046;-70
2023/12/06 06:58:03;;;;;;;10.40;6.10;;;1.70;99.90;;;;;;4964524;28;20046;-70
2023/12/06 07:00:30;;;;;;;16.83;6.20;;;1.70;99.90;;;;;;4982249;28;20046;-70
2023/12/06 07:02:56;;;;;;;8.73;5.90;;;1.70;99.90;;;;;;4982393;28;20045;-70
2023/12/06 07:05:21;;;;;;;10.55;6.72;;;1.70;99.90;;;;;;4948529;28;20085;-69
2023/12/06 07:07:47;;;;;;;13.98;6.70;;;1.70;99.90;;;;;;4963982;28;20267;-70
2023/12/06 07:10:13;;;;;;;12.25;6.65;;;1.80;99.90;;;;;;4963035;28;20161;-70
2023/12/06 07:12:39;;;;;;;8.35;6.10;;;1.80;99.90;;;;;;4963993;28;20485;-70
2023/12/06 07:15:05;;;;;;;10.38;6.70;;;1.80;99.90;;;;;;4962027;28;20050;-70
2023/12/06 07:17:32;;;;;;;15.27;7.00;;;1.80;99.90;;;;;;4964438;28;20077;-70
2023/12/06 07:19:58;;;;;;;11.50;6.88;;;1.80;99.90;;;;;;4944666;28;20065;-70
2023/12/06 07:22:24;;;;;;;10.43;6.18;;;1.80;99.90;;;;;;4994965;28;20042;-70
2023/12/06 07:24:50;;;;;;;8.95;6.25;;;1.80;99.90;;;;;;4942222;28;20062;-70
2023/12/06 07:27:16;;;;;;;12.23;6.50;;;1.80;99.90;;;;;;4947987;28;20050;-70
2023/12/06 07:29:44;;;;;;;9.32;6.40;;;1.80;99.90;;;;;;4963028;28;20042;-70
2023/12/06 07:32:10;;;;;;;10.10;6.68;;;1.80;99.90;;;;;;4916941;28;20039;-70
2023/12/06 07:34:36;;;;;;;14.35;7.38;;;1.80;99.90;;;;;;4947021;28;20089;-70
2023/12/06 07:37:02;;;;;;;12.00;7.55;;;1.70;99.90;;;;;;4947352;28;20054;-70
2023/12/06 07:39:27;;;;;;;13.25;7.47;;;1.70;99.90;;;;;;4965019;28;20054;-70
2023/12/06 07:41:53;;;;;;;12.77;7.18;;;1.70;99.90;;;;;;4947193;28;20504;-70
2023/12/06 07:44:20;;;;;;;12.30;6.88;;;1.60;99.90;;;;;;4948496;28;20047;-70
2023/12/06 07:46:46;;;;;;;9.93;6.70;;;1.60;99.90;;;;;;4963550;28;20501;-70
2023/12/06 07:49:12;;;;;;;10.75;6.68;;;1.60;99.90;;;;;;4979313;28;20039;-69
2023/12/06 07:51:38;;;;;;;11.90;6.85;;;1.50;99.90;;;;;;4963401;28;20555;-70
2023/12/06 07:54:04;;;;;;;14.52;6.90;;;1.60;99.90;;;;;;4964125;28;20046;-70
2023/12/06 07:56:30;;;;;;;11.93;6.70;;;1.40;99.90;;;;;;4963491;28;20046;-70
2023/12/06 07:58:58;;;;;;;12.30;7.13;;;1.50;99.90;;;;;;4947885;28;20054;-70
2023/12/06 08:01:29;;;;;;;15.50;7.35;;;1.40;99.90;;;;;;4963880;28;20054;-70
2023/12/06 08:03:54;;;;;;;16.42;7.25;;;1.40;99.90;;;;;;4948830;28;20125;-70
2023/12/06 08:06:20;;;;;;;13.85;7.30;;;1.50;99.90;;;;;;4967282;28;20561;-70
2023/12/06 08:08:50;;;;;;;19.08;7.05;;;1.50;99.90;;;;;;4950485;28;20055;-70
2023/12/06 08:11:16;;;;;;;17.70;7.97;;;1.40;99.90;;;;;;4965778;28;20056;-70
2023/12/06 08:13:42;;;;;;;12.15;7.93;;;1.40;99.90;;;;;;4967275;28;20050;-70
2023/12/06 08:16:08;;;;;;;11.20;6.25;;;1.40;99.90;;;;;;4966249;28;20124;-69
2023/12/06 08:18:33;;;;;;;12.07;7.88;;;1.40;99.90;;;;;;4967453;28;20049;-70
2023/12/06 08:20:59;;;;;;;16.38;7.13;;;1.30;99.90;;;;;;4950416;28;20100;-70
2023/12/06 08:23:25;;;;;;;11.45;6.85;;;1.30;99.90;;;;;;4984599;28;20298;-70
2023/12/06 08:25:51;;;;;;;11.75;7.00;;;1.40;99.90;;;;;;4966561;28;20089;-70
2023/12/06 08:28:16;;;;;;;11.57;6.55;;;1.30;99.90;;;;;;4966705;28;20614;-70
2023/12/06 08:30:42;;;;;;;13.07;7.13;;;1.30;99.90;;;;;;4949739;28;20053;-70
2023/12/06 08:33:08;;;;;;;14.05;7.10;;;1.40;99.90;;;;;;4966932;28;20128;-70
2023/12/06 08:35:33;;;;;;;13.77;6.45;;;1.30;99.90;;;;;;4967067;28;20057;-70
2023/12/06 08:37:59;;;;;;;12.93;6.60;;;1.30;99.90;;;;;;4949864;28;20254;-70
2023/12/06 08:40:26;;;;;;;12.05;6.18;;;1.20;99.90;;;;;;4966808;28;20088;-70
2023/12/06 08:42:52;;;;;;;11.02;6.57;;;1.30;99.90;;;;;;4966758;28;20054;-70
2023/12/06 08:45:18;;;;;;;8.85;6.53;;;1.30;99.90;;;;;;4935288;28;20050;-70
2023/12/06 08:47:43;;;;;;;8.75;6.43;;;1.20;99.90;;;;;;4966778;28;20077;-70
2023/12/06 08:50:09;;;;;;;9.13;6.43;;;1.20;99.90;;;;;;4966235;28;20201;-70
2023/12/06 08:52:35;;;;;;;9.63;7.15;;;1.30;99.90;;;;;;4966763;28;20393;-70
2023/12/06 08:55:01;;;;;;;11.68;6.20;;;1.30;99.90;;;;;;4965382;28;20046;-70
2023/12/06 08:57:27;;;;;;;12.38;6.50;;;1.20;99.90;;;;;;4965980;28;20070;-70
2023/12/06 08:59:53;;;;;;;13.15;6.85;;;1.30;99.90;;;;;;4949697;28;20481;-70
2023/12/06 09:02:19;;;;;;;11.52;6.20;;;1.20;99.90;;;;;;4950242;28;20077;-70
2023/12/06 09:04:46;;;;;;;15.52;6.13;;;1.30;99.90;;;;;;4949212;28;20046;-70
2023/12/06 09:07:12;;;;;;;10.70;6.40;;;1.20;99.90;;;;;;4965392;28;20046;-70
2023/12/06 09:09:37;;;;;;;10.73;5.57;;;1.30;99.90;;;;;;4966691;28;20401;-70
2023/12/06 09:12:03;;;;;;;11.43;6.78;;;1.30;99.90;;;;;;4948925;28;20046;-71
2023/12/06 09:14:29;;;;;;;9.35;6.43;;;1.20;99.90;;;;;;4983038;28;20158;-70
2023/12/06 09:16:55;;;;;;;8.70;5.72;;;1.30;99.90;;;;;;4964698;28;20051;-70
2023/12/06 09:19:21;;;;;;;7.85;5.32;;;1.30;99.90;;;;;;4931863;28;20057;-70
2023/12/06 09:21:49;;;;;;;9.07;6.07;;;1.20;99.90;;;;;;4965644;28;20049;-70
2023/12/06 09:24:14;;;;;;;11.77;6.38;;;1.20;99.90;;;;;;4950190;28;20050;-70
2023/12/06 09:26:41;;;;;;;13.30;5.95;;;1.20;99.90;;;;;;4965709;28;20142;-70
2023/12/06 09:29:08;;;;;;;9.38;5.88;;;1.20;99.90;;;;;;4962013;28;20525;-70
2023/12/06 09:31:35;;;;;;;9.35;6.05;;;1.30;99.90;;;;;;4964107;28;20046;-70
2023/12/06 09:34:02;;;;;;;10.00;5.97;;;1.30;99.90;;;;;;4964881;28;20038;-70
2023/12/06 09:36:28;;;;;;;9.45;5.78;;;1.30;99.90;;;;;;4947195;28;20049;-69
2023/12/06 09:38:59;;;;;;;8.98;5.93;;;1.30;99.90;;;;;;4983076;28;20483;-69
2023/12/06 09:41:30;;;;;;;10.27;6.32;;;1.20;99.90;;;;;;4965221;28;20125;-70
2023/12/06 09:43:56;;;;;;;11.73;7.13;;;1.30;99.90;;;;;;4964854;28;20078;-70
2023/12/06 09:46:22;;;;;;;7.68;5.32;;;1.30;99.90;;;;;;4965472;28;20039;-70
2023/12/06 09:48:48;;;;;;;13.80;6.78;;;1.30;99.90;;;;;;4965946;28;20042;-69
2023/12/06 09:51:19;;;;;;;22.73;6.68;;;1.30;99.90;;;;;;4948932;28;20137;-70
2023/12/06 09:53:45;;;;;;;9.98;6.10;;;1.30;99.90;;;;;;4948893;28;20050;-70
2023/12/06 09:56:12;;;;;;;9.63;5.72;;;1.50;99.90;;;;;;4965173;28;20335;-69
2023/12/06 09:58:38;;;;;;;12.32;6.10;;;1.60;99.90;;;;;;4965267;28;20133;-69
2023/12/06 10:01:05;;;;;;;8.70;5.80;;;1.80;99.90;;;;;;4949747;28;20129;-70
2023/12/06 10:03:32;;;;;;;10.52;5.25;;;1.90;99.90;;;;;;4949263;28;20149;-70
2023/12/06 10:05:59;;;;;;;15.68;5.13;;;2.10;99.90;;;;;;4964625;28;20041;-70
2023/12/06 10:08:25;;;;;;;15.43;6.03;;;2.10;99.90;;;;;;4965471;28;20049;-70
2023/12/06 10:11:08;;;;;;;9.88;4.95;;;2.20;99.90;;;;;;4983022;28;20046;-69
2023/12/06 10:13:35;;;;;;;10.77;4.75;;;2.20;99.90;;;;;;4948820;28;20050;-70
2023/12/06 10:16:02;;;;;;;7.82;4.57;;;2.30;99.90;;;;;;4965034;28;20451;-70
2023/12/06 10:18:27;;;;;;;9.35;5.10;;;2.40;99.90;;;;;;4965199;28;20054;-70
2023/12/06 10:20:56;;;;;;;15.63;5.43;;;2.30;99.90;;;;;;4933027;28;20451;-70
2023/12/06 10:23:22;;;;;;;12.68;5.55;;;2.40;99.90;;;;;;4965510;28;20042;-70
2023/12/06 10:25:49;;;;;;;6.45;4.30;;;2.40;99.90;;;;;;4943604;28;20930;-70
2023/12/06 10:28:17;;;;;;;9.98;4.97;;;2.40;99.90;;;;;;4990875;28;20097;-70
2023/12/06 10:30:43;;;;;;;15.05;5.13;;;2.30;99.90;;;;;;4958274;28;20117;-70
2023/12/06 10:33:11;;;;;;;9.43;5.10;;;2.30;99.90;;;;;;4955285;28;20453;-70
2023/12/06 10:35:37;;;;;;;11.65;4.97;;;2.30;99.90;;;;;;4958271;28;20409;-70
2023/12/06 10:38:06;;;;;;;6.55;4.60;;;2.30;99.90;;;;;;4942356;28;20557;-70
2023/12/06 10:40:31;;;;;;;6.82;4.80;;;2.30;99.90;;;;;;4943249;28;20110;-70
2023/12/06 10:43:04;;;;;;;7.97;4.38;;;2.20;99.90;;;;;;4956009;28;20043;-71
2023/12/06 10:45:32;;;;;;;9.40;5.00;;;2.20;99.90;;;;;;4960427;28;20042;-70
2023/12/06 10:47:59;;;;;;;8.32;5.10;;;2.30;99.90;;;;;;4958582;28;20043;-70
2023/12/06 10:50:25;;;;;;;11.38;5.28;;;2.20;99.90;;;;;;4954720;28;20054;-70
2023/12/06 10:52:52;;;;;;;7.93;4.60;;;2.30;99.90;;;;;;4941492;28;20510;-70
2023/12/06 10:55:20;;;;;;;6.63;5.13;;;2.30;99.90;;;;;;4961206;28;20535;-70
2023/12/06 10:57:47;;;;;;;6.43;4.25;;;2.30;99.90;;;;;;4957364;28;20067;-71
2023/12/06 11:00:14;;;;;;;6.18;3.95;;;2.30;99.90;;;;;;4971703;28;20165;-71
2023/12/06 11:02:40;;;;;;;6.10;4.22;;;2.30;99.90;;;;;;4943221;28;20648;-70
2023/12/06 11:05:08;;;;;;;7.93;4.95;;;2.40;99.90;;;;;;4944270;28;20120;-71
2023/12/06 11:07:55;;;;;;;10.73;4.22;;;2.40;99.90;;;;;;4961437;28;20057;-70
2023/12/06 11:10:42;;;;;;;10.40;3.90;;;2.30;99.90;;;;;;4945358;28;20583;-70
2023/12/06 11:13:33;;;;;;;6.72;4.57;;;2.40;99.90;;;;;;4960606;28;20494;-70
2023/12/06 11:16:05;;;;;;;5.03;4.00;;;2.50;99.90;;;;;;4944524;28;20097;-70
2023/12/06 11:18:44;;;;;;;14.93;4.70;;;2.50;99.90;;;;;;4956342;28;20085;-70
2023/12/06 11:21:12;;;;;;;6.30;3.90;;;2.40;99.90;;;;;;4959998;28;20478;-70
2023/12/06 11:23:38;;;;;;;6.90;4.60;;;2.50;99.90;;;;;;4956938;28;20572;-71
2023/12/06 11:26:05;;;;;;;12.55;4.10;;;2.50;99.90;;;;;;4943461;28;20169;-70
2023/12/06 11:28:40;;;;;;;16.52;4.50;;;2.50;99.90;;;;;;4980315;28;20124;-71
2023/12/06 11:31:07;;;;;;;9.57;4.55;;;2.60;99.90;;;;;;4975617;28;20051;-70
2023/12/06 11:33:37;;;;;;;6.85;4.25;;;2.60;99.90;;;;;;4962970;28;20185;-71
2023/12/06 11:36:04;;;;;;;11.17;4.40;;;2.60;99.90;;;;;;4930425;28;20122;-70
2023/12/06 11:38:34;;;;;;;6.95;4.00;;;2.60;99.90;;;;;;4946062;28;20556;-70
2023/12/06 11:41:00;;;;;;;5.85;4.15;;;2.60;99.90;;;;;;4963750;28;20054;-70
2023/12/06 11:43:38;;;;;;;6.32;4.15;;;2.60;99.90;;;;;;4949325;28;20077;-70
2023/12/06 11:46:06;;;;;;;7.13;4.10;;;2.70;99.90;;;;;;4985014;28;20156;-70
2023/12/06 11:48:37;;;;;;;7.22;4.82;;;2.70;99.90;;;;;;4952043;28;20042;-70
2023/12/06 11:51:04;;;;;;;12.45;4.70;;;2.80;99.90;;;;;;4966580;28;20057;-70
2023/12/06 11:53:31;;;;;;;4.35;3.10;;;2.80;99.90;;;;;;4980763;28;20448;-70
2023/12/06 11:55:59;;;;;;;6.63;3.55;;;2.80;99.90;;;;;;4965851;28;20104;-70
2023/12/06 11:58:30;;;;;;;8.02;3.85;;;2.80;99.90;;;;;;4966512;28;20509;-70
2023/12/06 12:00:57;;;;;;;4.57;3.50;;;2.90;99.90;;;;;;4965410;28;20488;-70
2023/12/06 12:03:25;;;;;;;3.33;3.03;;;3.00;99.90;;;;;;4966245;28;20086;-71
2023/12/06 12:05:51;;;;;;;7.68;4.05;;;3.00;99.90;;;;;;4967320;28;20210;-71
2023/12/06 12:08:17;;;;;;;10.48;3.97;;;2.90;99.90;;;;;;4965667;28;20056;-70
2023/12/06 12:10:43;;;;;;;8.65;4.40;;;3.00;99.90;;;;;;4965675;28;20114;-71
2023/12/06 12:13:23;;;;;;;6.80;4.43;;;3.00;99.90;;;;;;4983665;28;20575;-70
2023/12/06 12:16:01;;;;;;;7.20;3.58;;;3.00;99.90;;;;;;4951075;28;20112;-71
2023/12/06 12:18:28;;;;;;;6.88;3.97;;;3.00;99.90;;;;;;4979341;28;20045;-70
2023/12/06 12:20:58;;;;;;;6.75;3.97;;;3.00;99.90;;;;;;4966198;28;21504;-71
2023/12/06 12:24:00;;;;;;;4.80;4.13;;;3.00;99.90;;;;;;4965943;28;20137;-70
2023/12/06 12:42:00;;;;;;;10.05;5.68;;;3.00;99.90;;;;;;4989860;23;20421;-70
2023/12/06 12:44:26;;;;;;;16.55;7.63;;;3.00;99.90;;;;;;4962577;28;20042;-70
2023/12/06 12:46:52;;;;;;;15.30;6.45;;;3.00;99.90;;;;;;4953579;28;20076;-70
2023/12/06 12:49:18;;;;;;;13.65;7.35;;;3.00;99.90;;;;;;4954961;28;20046;-70
2023/12/06 12:51:44;;;;;;;11.13;6.13;;;3.00;99.90;;;;;;4969021;28;20102;-70
2023/12/06 12:54:16;;;;;;;15.82;8.27;;;3.00;99.90;;;;;;4965900;28;20379;-70
2023/12/06 12:56:42;;;;;;;16.67;7.47;;;3.00;99.90;;;;;;4947114;28;20077;-70
2023/12/06 12:59:08;;;;;;;13.15;7.07;;;3.00;99.90;;;;;;4963008;28;20044;-70